sensor_id;sensor_type;location;lat;lon;timestamp;temperature;humidity
32215;DHT22;18708;53.124;23.190;2023-08-06T00:00:37;19.90;99.90
32215;DHT22;18708;53.124;23.190;2023-08-06T00:03:02;20.00;99.90
32215;DHT22;18708;53.124;23.190;2023-08-06T00:05:28;20.00;99.90
32215;DHT22;18708;53.124;23.190;2023-08-06T00:07:53;20.00;99.90
32215;DHT22;18708;53.124;23.190;2023-08-06T00:10:19;19.90;99.90
32215;DHT22;18708;53.124;23.190;2023-08-06T00:12:45;19.90;99.90
32215;DHT22;18708;53.124;23.190;2023-08-06T00:15:10;19.80;99.90
32215;DHT22;18708;53.124;23.190;2023-08-06T00:17:36;19.80;99.90
32215;DHT22;18708;53.124;23.190;2023-08-06T00:20:02;19.70;99.90
32215;DHT22;18708;53.124;23.190;2023-08-06T00:22:32;19.70;99.90
32215;DHT22;18708;53.124;23.190;2023-08-06T00:24:57;19.70;99.90
32215;DHT22;18708;53.124;23.190;2023-08-06T00:27:23;19.60;99.90
32215;DHT22;18708;53.124;23.190;2023-08-06T00:29:48;19.60;99.90
32215;DHT22;18708;53.124;23.190;2023-08-06T00:32:14;19.60;99.90
32215;DHT22;18708;53.124;23.190;2023-08-06T00:34:39;19.60;99.90
32215;DHT22;18708;53.124;23.190;2023-08-06T00:37:05;19.50;99.90
32215;DHT22;18708;53.124;23.190;2023-08-06T00:39:30;19.50;99.90
32215;DHT22;18708;53.124;23.190;2023-08-06T00:41:56;19.50;99.90
32215;DHT22;18708;53.124;23.190;2023-08-06T00:44:23;19.50;99.90
32215;DHT22;18708;53.124;23.190;2023-08-06T00:46:49;19.60;99.90
32215;DHT22;18708;53.124;23.190;2023-08-06T00:49:14;19.60;99.90
32215;DHT22;18708;53.124;23.190;2023-08-06T00:51:40;19.50;99.90
32215;DHT22;18708;53.124;23.190;2023-08-06T00:54:05;19.50;99.90
32215;DHT22;18708;53.124;23.190;2023-08-06T00:56:31;19.50;99.90
32215;DHT22;18708;53.124;23.190;2023-08-06T00:58:58;19.50;99.90
32215;DHT22;18708;53.124;23.190;2023-08-06T01:01:23;19.50;99.90
32215;DHT22;18708;53.124;23.190;2023-08-06T01:03:49;19.50;99.90
32215;DHT22;18708;53.124;23.190;2023-08-06T01:06:15;18.60;99.90
32215;DHT22;18708;53.124;23.190;2023-08-06T01:08:55;19.60;99.90
32215;DHT22;18708;53.124;23.190;2023-08-06T01:14:16;19.50;99.90
32215;DHT22;18708;53.124;23.190;2023-08-06T01:16:43;19.50;99.90
32215;DHT22;18708;53.124;23.190;2023-08-06T01:19:18;19.50;99.90
32215;DHT22;18708;53.124;23.190;2023-08-06T01:21:44;19.50;99.90
32215;DHT22;18708;53.124;23.190;2023-08-06T01:24:09;19.50;99.90
32215;DHT22;18708;53.124;23.190;2023-08-06T01:29:20;19.60;99.90
32215;DHT22;18708;53.124;23.190;2023-08-06T01:31:48;19.60;99.90
32215;DHT22;18708;53.124;23.190;2023-08-06T01:34:16;19.60;99.90
32215;DHT22;18708;53.124;23.190;2023-08-06T01:36:42;19.60;99.90
32215;DHT22;18708;53.124;23.190;2023-08-06T01:39:08;19.60;99.90
32215;DHT22;18708;53.124;23.190;2023-08-06T01:41:33;19.60;99.90
32215;DHT22;18708;53.124;23.190;2023-08-06T01:43:59;19.50;99.90
32215;DHT22;18708;53.124;23.190;2023-08-06T01:46:25;19.60;99.90
32215;DHT22;18708;53.124;23.190;2023-08-06T01:48:50;19.60;99.90
32215;DHT22;18708;53.124;23.190;2023-08-06T01:51:16;19.60;99.90
32215;DHT22;18708;53.124;23.190;2023-08-06T01:53:44;19.60;99.90
32215;DHT22;18708;53.124;23.190;2023-08-06T01:56:09;19.60;99.90
32215;DHT22;18708;53.124;23.190;2023-08-06T01:58:35;19.60;99.90
32215;DHT22;18708;53.124;23.190;2023-08-06T02:01:01;19.60;99.90
32215;DHT22;18708;53.124;23.190;2023-08-06T02:03:26;19.60;99.90
32215;DHT22;18708;53.124;23.190;2023-08-06T02:05:52;19.70;99.90
32215;DHT22;18708;53.124;23.190;2023-08-06T02:08:17;19.60;99.90
32215;DHT22;18708;53.124;23.190;2023-08-06T02:10:43;19.60;99.90
32215;DHT22;18708;53.124;23.190;2023-08-06T02:13:09;19.60;99.90
32215;DHT22;18708;53.124;23.190;2023-08-06T02:15:35;19.60;99.90
32215;DHT22;18708;53.124;23.190;2023-08-06T02:18:00;19.60;99.90
32215;DHT22;18708;53.124;23.190;2023-08-06T02:20:26;19.60;99.90
32215;DHT22;18708;53.124;23.190;2023-08-06T02:22:51;19.70;99.90
32215;DHT22;18708;53.124;23.190;2023-08-06T02:25:17;19.70;99.90
32215;DHT22;18708;53.124;23.190;2023-08-06T02:27:42;19.60;99.90
32215;DHT22;18708;53.124;23.190;2023-08-06T02:30:08;19.70;99.90
32215;DHT22;18708;53.124;23.190;2023-08-06T02:32:34;19.70;99.90
32215;DHT22;18708;53.124;23.190;2023-08-06T02:35:01;19.70;99.90
32215;DHT22;18708;53.124;23.190;2023-08-06T02:37:27;19.70;99.90
32215;DHT22;18708;53.124;23.190;2023-08-06T02:39:52;19.80;99.90
32215;DHT22;18708;53.124;23.190;2023-08-06T02:42:18;19.80;99.90
32215;DHT22;18708;53.124;23.190;2023-08-06T02:44:43;19.80;99.90
32215;DHT22;18708;53.124;23.190;2023-08-06T02:47:09;19.80;99.90
32215;DHT22;18708;53.124;23.190;2023-08-06T02:49:34;19.80;99.90
32215;DHT22;18708;53.124;23.190;2023-08-06T02:52:00;19.80;99.90
32215;DHT22;18708;53.124;23.190;2023-08-06T02:54:26;19.90;99.90
32215;DHT22;18708;53.124;23.190;2023-08-06T02:56:51;19.90;99.90
32215;DHT22;18708;53.124;23.190;2023-08-06T02:59:17;19.90;99.90
32215;DHT22;18708;53.124;23.190;2023-08-06T03:01:42;20.00;99.90
32215;DHT22;18708;53.124;23.190;2023-08-06T03:04:08;19.90;99.90
32215;DHT22;18708;53.124;23.190;2023-08-06T03:06:33;19.90;99.90
32215;DHT22;18708;53.124;23.190;2023-08-06T03:08:59;19.90;99.90
32215;DHT22;18708;53.124;23.190;2023-08-06T03:11:24;19.90;99.90
32215;DHT22;18708;53.124;23.190;2023-08-06T03:13:50;19.90;99.90
32215;DHT22;18708;53.124;23.190;2023-08-06T03:16:15;20.00;99.90
32215;DHT22;18708;53.124;23.190;2023-08-06T03:18:41;20.00;99.90
32215;DHT22;18708;53.124;23.190;2023-08-06T03:21:06;20.00;99.90
32215;DHT22;18708;53.124;23.190;2023-08-06T03:23:32;20.00;99.90
32215;DHT22;18708;53.124;23.190;2023-08-06T03:26:01;20.10;99.90
32215;DHT22;18708;53.124;23.190;2023-08-06T03:28:27;20.10;99.90
32215;DHT22;18708;53.124;23.190;2023-08-06T03:30:59;20.20;99.90
32215;DHT22;18708;53.124;23.190;2023-08-06T03:33:24;20.20;99.90
32215;DHT22;18708;53.124;23.190;2023-08-06T03:35:50;20.20;99.90
32215;DHT22;18708;53.124;23.190;2023-08-06T03:38:15;20.20;99.90
32215;DHT22;18708;53.124;23.190;2023-08-06T03:40:41;20.30;99.90
32215;DHT22;18708;53.124;23.190;2023-08-06T03:43:06;20.30;99.90
32215;DHT22;18708;53.124;23.190;2023-08-06T03:45:32;20.30;99.90
32215;DHT22;18708;53.124;23.190;2023-08-06T03:47:57;20.30;99.90
32215;DHT22;18708;53.124;23.190;2023-08-06T03:50:23;20.40;99.90
32215;DHT22;18708;53.124;23.190;2023-08-06T03:52:49;20.50;99.90
32215;DHT22;18708;53.124;23.190;2023-08-06T03:55:14;20.60;99.90
32215;DHT22;18708;53.124;23.190;2023-08-06T03:57:40;20.60;99.90
32215;DHT22;18708;53.124;23.190;2023-08-06T04:00:05;20.60;99.90
32215;DHT22;18708;53.124;23.190;2023-08-06T04:02:31;20.60;99.90
32215;DHT22;18708;53.124;23.190;2023-08-06T04:04:57;20.80;99.90
32215;DHT22;18708;53.124;23.190;2023-08-06T04:07:24;20.80;99.90
32215;DHT22;18708;53.124;23.190;2023-08-06T04:09:54;20.90;99.90
32215;DHT22;18708;53.124;23.190;2023-08-06T04:12:19;21.00;99.90
32215;DHT22;18708;53.124;23.190;2023-08-06T04:14:45;21.20;99.90
32215;DHT22;18708;53.124;23.190;2023-08-06T04:17:11;21.20;99.90
32215;DHT22;18708;53.124;23.190;2023-08-06T04:19:36;21.30;99.90
32215;DHT22;18708;53.124;23.190;2023-08-06T04:22:02;21.30;99.90
32215;DHT22;18708;53.124;23.190;2023-08-06T04:24:27;21.40;99.90
32215;DHT22;18708;53.124;23.190;2023-08-06T04:26:53;21.50;99.90
32215;DHT22;18708;53.124;23.190;2023-08-06T04:29:18;21.50;99.90
32215;DHT22;18708;53.124;23.190;2023-08-06T04:31:44;21.60;99.90
32215;DHT22;18708;53.124;23.190;2023-08-06T04:34:09;21.70;99.90
32215;DHT22;18708;53.124;23.190;2023-08-06T04:36:35;21.80;99.90
32215;DHT22;18708;53.124;23.190;2023-08-06T04:39:00;21.80;99.90
32215;DHT22;18708;53.124;23.190;2023-08-06T04:41:26;21.90;99.90
32215;DHT22;18708;53.124;23.190;2023-08-06T04:43:51;22.00;99.90
32215;DHT22;18708;53.124;23.190;2023-08-06T04:46:17;22.10;99.90
32215;DHT22;18708;53.124;23.190;2023-08-06T04:48:42;22.10;99.90
32215;DHT22;18708;53.124;23.190;2023-08-06T04:51:08;22.20;99.90
32215;DHT22;18708;53.124;23.190;2023-08-06T04:53:33;22.30;99.90
32215;DHT22;18708;53.124;23.190;2023-08-06T04:55:59;22.40;99.90
32215;DHT22;18708;53.124;23.190;2023-08-06T04:58:24;22.40;99.90
32215;DHT22;18708;53.124;23.190;2023-08-06T05:00:50;22.50;99.90
32215;DHT22;18708;53.124;23.190;2023-08-06T05:03:16;22.60;99.90
32215;DHT22;18708;53.124;23.190;2023-08-06T05:05:41;22.70;99.90
32215;DHT22;18708;53.124;23.190;2023-08-06T05:08:07;22.70;99.90
32215;DHT22;18708;53.124;23.190;2023-08-06T05:10:32;22.90;99.90
32215;DHT22;18708;53.124;23.190;2023-08-06T05:12:58;22.90;99.90
32215;DHT22;18708;53.124;23.190;2023-08-06T05:15:23;23.00;99.90
32215;DHT22;18708;53.124;23.190;2023-08-06T05:17:50;23.10;99.90
32215;DHT22;18708;53.124;23.190;2023-08-06T05:20:16;23.20;99.90
32215;DHT22;18708;53.124;23.190;2023-08-06T05:22:42;23.30;99.90
32215;DHT22;18708;53.124;23.190;2023-08-06T05:25:08;23.40;99.90
32215;DHT22;18708;53.124;23.190;2023-08-06T05:27:34;23.50;99.90
32215;DHT22;18708;53.124;23.190;2023-08-06T05:29:59;23.70;99.90
32215;DHT22;18708;53.124;23.190;2023-08-06T05:32:25;23.80;99.90
32215;DHT22;18708;53.124;23.190;2023-08-06T05:34:50;23.80;99.90
32215;DHT22;18708;53.124;23.190;2023-08-06T05:37:16;23.90;99.90
32215;DHT22;18708;53.124;23.190;2023-08-06T05:39:41;24.00;99.90
32215;DHT22;18708;53.124;23.190;2023-08-06T05:42:07;24.00;99.90
32215;DHT22;18708;53.124;23.190;2023-08-06T05:44:35;24.10;1.00
32215;DHT22;18708;53.124;23.190;2023-08-06T05:47:00;24.20;1.00
32215;DHT22;18708;53.124;23.190;2023-08-06T05:49:26;24.30;1.00
32215;DHT22;18708;53.124;23.190;2023-08-06T05:51:51;24.30;8.40
32215;DHT22;18708;53.124;23.190;2023-08-06T05:54:18;24.50;1.00
32215;DHT22;18708;53.124;23.190;2023-08-06T05:56:44;24.60;94.00
32215;DHT22;18708;53.124;23.190;2023-08-06T05:59:10;24.60;1.00
32215;DHT22;18708;53.124;23.190;2023-08-06T06:01:35;24.70;99.90
32215;DHT22;18708;53.124;23.190;2023-08-06T06:04:01;24.90;1.00
32215;DHT22;18708;53.124;23.190;2023-08-06T06:06:26;25.00;1.00
32215;DHT22;18708;53.124;23.190;2023-08-06T06:08:52;25.10;99.90
32215;DHT22;18708;53.124;23.190;2023-08-06T06:11:17;25.30;99.90
32215;DHT22;18708;53.124;23.190;2023-08-06T06:13:47;25.40;1.00
32215;DHT22;18708;53.124;23.190;2023-08-06T06:16:13;25.60;99.90
32215;DHT22;18708;53.124;23.190;2023-08-06T06:18:38;25.90;99.90
32215;DHT22;18708;53.124;23.190;2023-08-06T06:21:04;26.10;99.90
32215;DHT22;18708;53.124;23.190;2023-08-06T06:23:29;26.50;1.00
32215;DHT22;18708;53.124;23.190;2023-08-06T06:25:55;26.60;1.00
32215;DHT22;18708;53.124;23.190;2023-08-06T06:28:23;26.80;1.00
32215;DHT22;18708;53.124;23.190;2023-08-06T06:30:49;27.00;1.00
32215;DHT22;18708;53.124;23.190;2023-08-06T06:33:15;27.00;99.90
32215;DHT22;18708;53.124;23.190;2023-08-06T06:35:40;27.00;99.90
32215;DHT22;18708;53.124;23.190;2023-08-06T06:38:06;27.10;1.00
32215;DHT22;18708;53.124;23.190;2023-08-06T06:40:31;27.20;1.00
32215;DHT22;18708;53.124;23.190;2023-08-06T06:42:58;27.40;1.00
32215;DHT22;18708;53.124;23.190;2023-08-06T06:45:23;27.50;99.90
32215;DHT22;18708;53.124;23.190;2023-08-06T06:47:49;27.80;99.90
32215;DHT22;18708;53.124;23.190;2023-08-06T06:50:15;28.00;99.90
32215;DHT22;18708;53.124;23.190;2023-08-06T06:52:40;28.00;99.90
32215;DHT22;18708;53.124;23.190;2023-08-06T06:55:06;28.10;99.90
32215;DHT22;18708;53.124;23.190;2023-08-06T06:57:32;28.30;1.00
32215;DHT22;18708;53.124;23.190;2023-08-06T06:59:57;28.20;1.00
32215;DHT22;18708;53.124;23.190;2023-08-06T07:02:23;28.00;1.00
32215;DHT22;18708;53.124;23.190;2023-08-06T07:04:49;28.10;1.00
32215;DHT22;18708;53.124;23.190;2023-08-06T07:07:15;28.30;99.90
32215;DHT22;18708;53.124;23.190;2023-08-06T07:09:40;28.40;99.90
32215;DHT22;18708;53.124;23.190;2023-08-06T07:12:06;28.40;99.90
32215;DHT22;18708;53.124;23.190;2023-08-06T07:14:33;28.60;99.90
32215;DHT22;18708;53.124;23.190;2023-08-06T07:16:59;28.80;99.90
32215;DHT22;18708;53.124;23.190;2023-08-06T07:19:25;29.10;99.90
32215;DHT22;18708;53.124;23.190;2023-08-06T07:21:50;28.90;99.90
32215;DHT22;18708;53.124;23.190;2023-08-06T07:24:16;28.70;99.90
32215;DHT22;18708;53.124;23.190;2023-08-06T07:26:41;29.20;99.90
32215;DHT22;18708;53.124;23.190;2023-08-06T07:29:07;28.80;99.90
32215;DHT22;18708;53.124;23.190;2023-08-06T07:31:32;29.40;57.30
32215;DHT22;18708;53.124;23.190;2023-08-06T07:33:58;29.70;82.10
32215;DHT22;18708;53.124;23.190;2023-08-06T07:36:24;30.00;98.20
32215;DHT22;18708;53.124;23.190;2023-08-06T07:38:49;29.70;44.30
32215;DHT22;18708;53.124;23.190;2023-08-06T07:41:21;29.80;81.30
32215;DHT22;18708;53.124;23.190;2023-08-06T07:43:46;30.00;99.90
32215;DHT22;18708;53.124;23.190;2023-08-06T07:46:12;30.00;1.00
32215;DHT22;18708;53.124;23.190;2023-08-06T07:48:38;29.80;1.00
32215;DHT22;18708;53.124;23.190;2023-08-06T07:51:04;29.90;1.00
32215;DHT22;18708;53.124;23.190;2023-08-06T07:53:29;29.90;39.00
32215;DHT22;18708;53.124;23.190;2023-08-06T07:55:56;29.90;1.00
32215;DHT22;18708;53.124;23.190;2023-08-06T07:58:22;30.20;1.00
32215;DHT22;18708;53.124;23.190;2023-08-06T08:00:48;30.40;1.00
32215;DHT22;18708;53.124;23.190;2023-08-06T08:03:14;31.00;1.00
32215;DHT22;18708;53.124;23.190;2023-08-06T08:05:40;31.00;1.00
32215;DHT22;18708;53.124;23.190;2023-08-06T08:08:06;31.10;1.00
32215;DHT22;18708;53.124;23.190;2023-08-06T08:10:32;30.80;1.00
32215;DHT22;18708;53.124;23.190;2023-08-06T08:12:58;30.60;1.00
32215;DHT22;18708;53.124;23.190;2023-08-06T08:15:24;30.90;1.00
32215;DHT22;18708;53.124;23.190;2023-08-06T08:17:51;31.20;1.00
32215;DHT22;18708;53.124;23.190;2023-08-06T08:20:17;31.30;1.00
32215;DHT22;18708;53.124;23.190;2023-08-06T08:22:43;31.10;1.00
32215;DHT22;18708;53.124;23.190;2023-08-06T08:25:09;31.00;1.00
32215;DHT22;18708;53.124;23.190;2023-08-06T08:27:36;31.10;1.00
32215;DHT22;18708;53.124;23.190;2023-08-06T08:30:01;31.10;1.00
32215;DHT22;18708;53.124;23.190;2023-08-06T08:32:27;31.10;71.90
32215;DHT22;18708;53.124;23.190;2023-08-06T08:34:52;30.90;99.90
32215;DHT22;18708;53.124;23.190;2023-08-06T08:37:18;30.40;81.70
32215;DHT22;18708;53.124;23.190;2023-08-06T08:39:44;30.60;88.70
32215;DHT22;18708;53.124;23.190;2023-08-06T08:42:10;30.90;69.90
32215;DHT22;18708;53.124;23.190;2023-08-06T08:44:35;31.00;92.20
32215;DHT22;18708;53.124;23.190;2023-08-06T08:47:05;30.70;96.60
32215;DHT22;18708;53.124;23.190;2023-08-06T08:49:31;31.10;93.40
32215;DHT22;18708;53.124;23.190;2023-08-06T08:51:57;30.70;75.50
32215;DHT22;18708;53.124;23.190;2023-08-06T08:54:24;31.50;43.90
32215;DHT22;18708;53.124;23.190;2023-08-06T08:56:50;31.50;21.10
32215;DHT22;18708;53.124;23.190;2023-08-06T08:59:16;31.30;99.90
32215;DHT22;18708;53.124;23.190;2023-08-06T09:01:41;31.40;99.90
32215;DHT22;18708;53.124;23.190;2023-08-06T09:04:07;31.20;29.30
32215;DHT22;18708;53.124;23.190;2023-08-06T09:06:35;32.00;1.00
32215;DHT22;18708;53.124;23.190;2023-08-06T09:09:09;31.90;1.00
32215;DHT22;18708;53.124;23.190;2023-08-06T09:11:39;31.90;1.00
32215;DHT22;18708;53.124;23.190;2023-08-06T09:14:07;31.80;1.00
32215;DHT22;18708;53.124;23.190;2023-08-06T09:16:36;31.60;1.00
32215;DHT22;18708;53.124;23.190;2023-08-06T09:19:08;31.70;1.00
32215;DHT22;18708;53.124;23.190;2023-08-06T09:21:35;31.30;1.00
32215;DHT22;18708;53.124;23.190;2023-08-06T09:24:01;31.50;1.00
32215;DHT22;18708;53.124;23.190;2023-08-06T09:26:37;31.90;1.00
32215;DHT22;18708;53.124;23.190;2023-08-06T09:29:07;32.00;1.00
32215;DHT22;18708;53.124;23.190;2023-08-06T09:31:33;31.70;1.00
32215;DHT22;18708;53.124;23.190;2023-08-06T09:34:09;31.60;1.00
32215;DHT22;18708;53.124;23.190;2023-08-06T09:36:38;31.70;1.00
32215;DHT22;18708;53.124;23.190;2023-08-06T09:39:11;31.90;1.00
32215;DHT22;18708;53.124;23.190;2023-08-06T09:41:37;32.00;1.00
32215;DHT22;18708;53.124;23.190;2023-08-06T09:44:03;32.10;1.00
32215;DHT22;18708;53.124;23.190;2023-08-06T09:46:29;33.30;1.00
32215;DHT22;18708;53.124;23.190;2023-08-06T09:48:57;31.80;1.00
32215;DHT22;18708;53.124;23.190;2023-08-06T09:51:23;32.10;1.00
32215;DHT22;18708;53.124;23.190;2023-08-06T09:53:48;32.00;1.00
32215;DHT22;18708;53.124;23.190;2023-08-06T09:56:14;32.00;1.00
32215;DHT22;18708;53.124;23.190;2023-08-06T09:58:41;32.30;1.00
32215;DHT22;18708;53.124;23.190;2023-08-06T10:01:07;32.60;1.00
32215;DHT22;18708;53.124;23.190;2023-08-06T10:03:33;32.50;1.00
32215;DHT22;18708;53.124;23.190;2023-08-06T10:05:59;32.70;1.00
32215;DHT22;18708;53.124;23.190;2023-08-06T10:08:27;33.00;1.00
32215;DHT22;18708;53.124;23.190;2023-08-06T10:10:52;33.20;1.00
32215;DHT22;18708;53.124;23.190;2023-08-06T10:13:18;32.50;1.00
32215;DHT22;18708;53.124;23.190;2023-08-06T10:15:46;32.40;1.00
32215;DHT22;18708;53.124;23.190;2023-08-06T10:18:11;32.70;1.00
32215;DHT22;18708;53.124;23.190;2023-08-06T10:20:37;32.70;1.00
32215;DHT22;18708;53.124;23.190;2023-08-06T10:23:05;33.20;1.00
32215;DHT22;18708;53.124;23.190;2023-08-06T10:25:32;33.20;1.00
32215;DHT22;18708;53.124;23.190;2023-08-06T10:27:59;33.00;1.00
32215;DHT22;18708;53.124;23.190;2023-08-06T10:32:51;33.70;1.00
32215;DHT22;18708;53.124;23.190;2023-08-06T10:35:36;33.70;1.00
32215;DHT22;18708;53.124;23.190;2023-08-06T10:38:09;33.30;1.00
32215;DHT22;18708;53.124;23.190;2023-08-06T10:40:35;33.50;1.00
32215;DHT22;18708;53.124;23.190;2023-08-06T10:43:02;33.10;1.00
32215;DHT22;18708;53.124;23.190;2023-08-06T10:45:28;33.60;1.00
32215;DHT22;18708;53.124;23.190;2023-08-06T10:47:55;33.50;1.00
32215;DHT22;18708;53.124;23.190;2023-08-06T10:50:23;34.30;1.00
32215;DHT22;18708;53.124;23.190;2023-08-06T10:52:49;33.00;1.00
32215;DHT22;18708;53.124;23.190;2023-08-06T10:55:21;33.30;1.00
32215;DHT22;18708;53.124;23.190;2023-08-06T10:57:47;33.40;1.00
32215;DHT22;18708;53.124;23.190;2023-08-06T11:00:13;33.20;1.00
32215;DHT22;18708;53.124;23.190;2023-08-06T11:02:39;32.70;1.00
32215;DHT22;18708;53.124;23.190;2023-08-06T11:05:08;32.70;1.00
32215;DHT22;18708;53.124;23.190;2023-08-06T11:07:36;32.70;1.00
32215;DHT22;18708;53.124;23.190;2023-08-06T11:10:03;32.40;1.00
32215;DHT22;18708;53.124;23.190;2023-08-06T11:12:29;32.00;1.00
32215;DHT22;18708;53.124;23.190;2023-08-06T11:14:54;32.20;1.00
32215;DHT22;18708;53.124;23.190;2023-08-06T11:17:21;32.20;1.00
32215;DHT22;18708;53.124;23.190;2023-08-06T11:19:46;32.10;1.00
32215;DHT22;18708;53.124;23.190;2023-08-06T11:22:13;32.60;1.00
32215;DHT22;18708;53.124;23.190;2023-08-06T11:24:39;32.20;1.00
32215;DHT22;18708;53.124;23.190;2023-08-06T11:27:14;32.20;1.00
32215;DHT22;18708;53.124;23.190;2023-08-06T11:29:40;32.20;1.00
32215;DHT22;18708;53.124;23.190;2023-08-06T11:32:06;32.20;1.00
32215;DHT22;18708;53.124;23.190;2023-08-06T11:34:34;32.00;1.00
32215;DHT22;18708;53.124;23.190;2023-08-06T11:36:59;31.90;1.00
32215;DHT22;18708;53.124;23.190;2023-08-06T11:39:25;32.40;1.00
32215;DHT22;18708;53.124;23.190;2023-08-06T11:41:53;33.00;1.00
32215;DHT22;18708;53.124;23.190;2023-08-06T11:44:19;33.40;1.00
32215;DHT22;18708;53.124;23.190;2023-08-06T11:46:53;33.60;1.00
32215;DHT22;18708;53.124;23.190;2023-08-06T11:52:18;33.60;1.00
32215;DHT22;18708;53.124;23.190;2023-08-06T11:54:59;33.70;1.00
32215;DHT22;18708;53.124;23.190;2023-08-06T11:57:27;33.70;1.00
32215;DHT22;18708;53.124;23.190;2023-08-06T11:59:54;34.00;1.00
32215;DHT22;18708;53.124;23.190;2023-08-06T12:02:21;34.40;1.00
32215;DHT22;18708;53.124;23.190;2023-08-06T12:04:58;33.40;1.00
32215;DHT22;18708;53.124;23.190;2023-08-06T12:07:28;34.00;1.00
32215;DHT22;18708;53.124;23.190;2023-08-06T12:09:54;34.30;1.00
32215;DHT22;18708;53.124;23.190;2023-08-06T12:12:20;34.00;1.00
32215;DHT22;18708;53.124;23.190;2023-08-06T12:14:45;33.20;1.00
32215;DHT22;18708;53.124;23.190;2023-08-06T12:17:11;32.40;1.00
32215;DHT22;18708;53.124;23.190;2023-08-06T12:19:36;32.90;1.00
32215;DHT22;18708;53.124;23.190;2023-08-06T12:22:02;33.40;1.00
32215;DHT22;18708;53.124;23.190;2023-08-06T12:24:28;32.90;1.00
32215;DHT22;18708;53.124;23.190;2023-08-06T12:26:57;33.00;1.00
32215;DHT22;18708;53.124;23.190;2023-08-06T12:29:23;33.20;1.00
32215;DHT22;18708;53.124;23.190;2023-08-06T12:31:48;33.20;1.00
32215;DHT22;18708;53.124;23.190;2023-08-06T12:34:14;33.90;1.00
32215;DHT22;18708;53.124;23.190;2023-08-06T12:36:39;34.00;1.00
32215;DHT22;18708;53.124;23.190;2023-08-06T12:39:05;34.00;1.00
32215;DHT22;18708;53.124;23.190;2023-08-06T12:41:30;33.90;1.00
32215;DHT22;18708;53.124;23.190;2023-08-06T12:43:56;33.60;1.00
32215;DHT22;18708;53.124;23.190;2023-08-06T12:46:22;33.90;1.00
32215;DHT22;18708;53.124;23.190;2023-08-06T12:48:47;33.80;1.00
32215;DHT22;18708;53.124;23.190;2023-08-06T12:51:14;33.80;1.00
32215;DHT22;18708;53.124;23.190;2023-08-06T12:53:39;33.80;1.00
32215;DHT22;18708;53.124;23.190;2023-08-06T12:56:05;34.00;1.00
32215;DHT22;18708;53.124;23.190;2023-08-06T12:58:31;33.80;1.00
32215;DHT22;18708;53.124;23.190;2023-08-06T13:00:56;33.60;1.00
32215;DHT22;18708;53.124;23.190;2023-08-06T13:03:22;33.60;1.00
32215;DHT22;18708;53.124;23.190;2023-08-06T13:05:47;33.70;1.00
32215;DHT22;18708;53.124;23.190;2023-08-06T13:08:14;34.20;1.00
32215;DHT22;18708;53.124;23.190;2023-08-06T13:10:42;33.50;1.00
32215;DHT22;18708;53.124;23.190;2023-08-06T13:13:07;32.70;1.00
32215;DHT22;18708;53.124;23.190;2023-08-06T13:15:35;32.50;1.00
32215;DHT22;18708;53.124;23.190;2023-08-06T13:18:01;32.30;1.00
32215;DHT22;18708;53.124;23.190;2023-08-06T13:20:26;32.60;1.00
32215;DHT22;18708;53.124;23.190;2023-08-06T13:22:52;32.70;1.00
32215;DHT22;18708;53.124;23.190;2023-08-06T13:25:20;32.90;1.00
32215;DHT22;18708;53.124;23.190;2023-08-06T13:27:46;32.70;1.00
32215;DHT22;18708;53.124;23.190;2023-08-06T13:30:15;32.60;1.00
32215;DHT22;18708;53.124;23.190;2023-08-06T13:32:41;32.10;1.00
32215;DHT22;18708;53.124;23.190;2023-08-06T13:35:07;32.20;1.00
32215;DHT22;18708;53.124;23.190;2023-08-06T13:37:32;32.80;1.00
32215;DHT22;18708;53.124;23.190;2023-08-06T13:39:58;32.70;1.00
32215;DHT22;18708;53.124;23.190;2023-08-06T13:42:23;32.60;1.00
32215;DHT22;18708;53.124;23.190;2023-08-06T13:44:51;32.90;1.00
32215;DHT22;18708;53.124;23.190;2023-08-06T13:47:17;33.10;1.00
32215;DHT22;18708;53.124;23.190;2023-08-06T13:49:42;33.20;1.00
32215;DHT22;18708;53.124;23.190;2023-08-06T13:52:10;32.90;1.00
32215;DHT22;18708;53.124;23.190;2023-08-06T13:54:35;32.60;1.00
32215;DHT22;18708;53.124;23.190;2023-08-06T13:57:01;32.40;1.00
32215;DHT22;18708;53.124;23.190;2023-08-06T13:59:26;32.10;1.00
32215;DHT22;18708;53.124;23.190;2023-08-06T14:01:52;31.90;1.00
32215;DHT22;18708;53.124;23.190;2023-08-06T14:04:18;31.60;1.00
32215;DHT22;18708;53.124;23.190;2023-08-06T14:06:45;31.60;1.00
32215;DHT22;18708;53.124;23.190;2023-08-06T14:09:11;31.60;1.00
32215;DHT22;18708;53.124;23.190;2023-08-06T14:11:39;31.60;1.00
32215;DHT22;18708;53.124;23.190;2023-08-06T14:14:05;32.00;1.00
32215;DHT22;18708;53.124;23.190;2023-08-06T14:16:31;32.40;1.00
32215;DHT22;18708;53.124;23.190;2023-08-06T14:18:56;32.70;1.00
32215;DHT22;18708;53.124;23.190;2023-08-06T14:21:22;32.80;1.00
32215;DHT22;18708;53.124;23.190;2023-08-06T14:23:47;32.90;1.00
32215;DHT22;18708;53.124;23.190;2023-08-06T14:26:13;32.90;1.00
32215;DHT22;18708;53.124;23.190;2023-08-06T14:28:40;32.90;1.00
32215;DHT22;18708;53.124;23.190;2023-08-06T14:31:06;33.10;1.00
32215;DHT22;18708;53.124;23.190;2023-08-06T14:33:32;33.30;1.00
32215;DHT22;18708;53.124;23.190;2023-08-06T14:35:57;33.20;1.00
32215;DHT22;18708;53.124;23.190;2023-08-06T14:38:23;33.20;1.00
32215;DHT22;18708;53.124;23.190;2023-08-06T14:40:48;33.20;1.00
32215;DHT22;18708;53.124;23.190;2023-08-06T14:43:14;32.70;1.00
32215;DHT22;18708;53.124;23.190;2023-08-06T14:45:40;31.80;1.00
32215;DHT22;18708;53.124;23.190;2023-08-06T14:48:06;31.10;1.00
32215;DHT22;18708;53.124;23.190;2023-08-06T14:50:31;31.10;1.00
32215;DHT22;18708;53.124;23.190;2023-08-06T14:52:57;31.20;1.00
32215;DHT22;18708;53.124;23.190;2023-08-06T14:55:26;31.30;1.00
32215;DHT22;18708;53.124;23.190;2023-08-06T14:57:52;31.40;1.00
32215;DHT22;18708;53.124;23.190;2023-08-06T15:00:18;31.50;1.00
32215;DHT22;18708;53.124;23.190;2023-08-06T15:02:44;31.60;1.00
32215;DHT22;18708;53.124;23.190;2023-08-06T15:05:09;31.40;1.00
32215;DHT22;18708;53.124;23.190;2023-08-06T15:07:35;31.20;1.00
32215;DHT22;18708;53.124;23.190;2023-08-06T15:10:01;30.90;1.00
32215;DHT22;18708;53.124;23.190;2023-08-06T15:12:28;30.80;1.00
32215;DHT22;18708;53.124;23.190;2023-08-06T15:14:53;30.40;1.00
32215;DHT22;18708;53.124;23.190;2023-08-06T15:17:22;30.20;1.00
32215;DHT22;18708;53.124;23.190;2023-08-06T15:19:48;30.10;1.00
32215;DHT22;18708;53.124;23.190;2023-08-06T15:22:13;30.00;1.00
32215;DHT22;18708;53.124;23.190;2023-08-06T15:24:39;29.90;1.00
32215;DHT22;18708;53.124;23.190;2023-08-06T15:27:10;29.70;1.00